Time;durP1;ratioP1;P1;durP2;ratioP2;P2;SDS_P1;SDS_P2;PMS_P1;PMS_P2;Temp;Humidity;BMP_temperature;BMP_pressure;BME280_temperature;BME280_humidity;BME280_pressure;Samples;Min_cycle;Max_cycle;Signal;HPM_P1;HPM_P2
2021/03/06 00:02:20;;;;;;;10.32;4.45;;;0.80;98.20;;;;;;5048207;28;20036;-46
2021/03/06 00:04:46;;;;;;;10.82;4.97;;;0.80;99.80;;;;;;5054667;28;20175;-45
2021/03/06 00:07:12;;;;;;;10.63;4.60;;;0.80;98.70;;;;;;5049820;28;20028;-45
2021/03/06 00:09:37;;;;;;;8.35;4.20;;;0.90;99.50;;;;;;5048377;28;20024;-48
2021/03/06 00:12:03;;;;;;;6.75;2.85;;;0.90;98.60;;;;;;5048100;28;20494;-45
2021/03/06 00:14:33;;;;;;;5.32;2.92;;;0.90;97.40;;;;;;5048100;28;20029;-46
2021/03/06 00:16:59;;;;;;;5.28;3.00;;;0.90;98.20;;;;;;5047318;28;20029;-46
2021/03/06 00:19:25;;;;;;;6.55;2.97;;;0.90;98.80;;;;;;5048480;28;20288;-45
2021/03/06 00:21:50;;;;;;;6.65;3.15;;;0.80;98.80;;;;;;5046909;28;20029;-46
2021/03/06 00:24:16;;;;;;;7.63;2.67;;;0.80;98.40;;;;;;5047680;28;20060;-45
2021/03/06 00:26:41;;;;;;;6.68;3.40;;;0.80;97.50;;;;;;5047388;28;20024;-45
2021/03/06 00:29:07;;;;;;;7.68;2.65;;;0.80;99.80;;;;;;5046355;28;20021;-46
2021/03/06 00:31:35;;;;;;;7.57;3.08;;;0.90;99.20;;;;;;5046602;28;20395;-47
2021/03/06 00:34:01;;;;;;;3.85;2.53;;;0.80;98.70;;;;;;5047575;28;20029;-46
2021/03/06 00:36:26;;;;;;;8.82;3.25;;;0.90;98.10;;;;;;5046832;28;20029;-45
2021/03/06 00:38:52;;;;;;;10.25;3.47;;;0.80;98.40;;;;;;5047927;28;20398;-46
2021/03/06 00:41:17;;;;;;;7.55;3.15;;;0.80;98.30;;;;;;5046311;28;20068;-45
2021/03/06 00:43:43;;;;;;;6.88;3.15;;;0.80;98.00;;;;;;5047961;28;20422;-47
2021/03/06 00:46:08;;;;;;;5.05;2.38;;;0.90;99.00;;;;;;5046916;28;20025;-45
2021/03/06 00:48:34;;;;;;;6.00;2.45;;;0.80;98.70;;;;;;5046330;28;20108;-46
2021/03/06 00:50:59;;;;;;;7.57;2.50;;;0.80;99.90;;;;;;5047190;28;20195;-45
2021/03/06 00:53:24;;;;;;;6.18;3.08;;;0.80;99.60;;;;;;5047729;28;20469;-46
2021/03/06 00:55:50;;;;;;;12.40;3.28;;;0.70;99.90;;;;;;5045735;28;20021;-45
2021/03/06 00:58:16;;;;;;;5.43;2.33;;;0.80;99.90;;;;;;5046208;28;20056;-46
2021/03/06 01:00:41;;;;;;;5.18;2.83;;;0.70;99.90;;;;;;5047520;28;20021;-45
2021/03/06 01:03:07;;;;;;;4.80;2.95;;;0.80;99.90;;;;;;5047363;28;20104;-45
2021/03/06 01:05:32;;;;;;;5.20;3.42;;;0.80;99.90;;;;;;5050944;28;20013;-45
2021/03/06 01:07:58;;;;;;;8.23;2.58;;;0.70;99.90;;;;;;5055361;28;20029;-48
2021/03/06 01:10:31;;;;;;;5.82;2.78;;;0.70;99.90;;;;;;5051803;28;20040;-46
2021/03/06 01:12:56;;;;;;;9.63;4.40;;;0.70;99.90;;;;;;5049617;28;20458;-46
2021/03/06 01:15:22;;;;;;;4.63;2.92;;;0.70;99.90;;;;;;5050510;28;20130;-46
2021/03/06 01:17:47;;;;;;;6.40;2.67;;;0.70;99.90;;;;;;5051493;28;20025;-48
2021/03/06 01:20:14;;;;;;;6.15;3.35;;;0.70;99.90;;;;;;5051205;28;20029;-45
2021/03/06 01:22:40;;;;;;;8.77;2.70;;;0.70;99.90;;;;;;5049121;28;20021;-46
2021/03/06 01:25:07;;;;;;;4.95;3.25;;;0.70;99.90;;;;;;5050434;28;20090;-46
2021/03/06 01:27:32;;;;;;;9.48;3.33;;;0.70;99.90;;;;;;5051478;28;20028;-46
2021/03/06 01:29:58;;;;;;;9.68;2.88;;;0.70;99.90;;;;;;5051224;28;20209;-46
2021/03/06 01:32:23;;;;;;;5.28;3.30;;;0.70;99.90;;;;;;5051590;28;20113;-45
2021/03/06 01:34:49;;;;;;;7.72;3.53;;;0.60;99.90;;;;;;5049684;28;20017;-47
2021/03/06 01:37:15;;;;;;;7.20;3.53;;;0.60;99.90;;;;;;5049009;28;20390;-46
2021/03/06 01:39:41;;;;;;;11.70;3.35;;;0.60;99.90;;;;;;5051327;28;20025;-47
2021/03/06 01:42:07;;;;;;;6.50;3.22;;;0.60;99.90;;;;;;5050746;28;20032;-48
2021/03/06 01:44:33;;;;;;;10.73;3.58;;;0.70;99.90;;;;;;5051136;28;20453;-46
2021/03/06 01:46:59;;;;;;;8.82;3.60;;;0.60;99.90;;;;;;5050284;28;20017;-49
2021/03/06 01:49:25;;;;;;;6.47;2.92;;;0.60;99.90;;;;;;5051357;28;20023;-46
2021/03/06 01:51:51;;;;;;;10.18;4.25;;;0.60;99.90;;;;;;5049694;28;20115;-46
2021/03/06 01:54:22;;;;;;;10.82;3.47;;;0.60;99.90;;;;;;5049385;28;20129;-46
2021/03/06 01:56:47;;;;;;;6.22;3.67;;;0.60;99.90;;;;;;5049953;28;20064;-45
2021/03/06 01:59:13;;;;;;;5.75;3.08;;;0.60;99.90;;;;;;5050839;28;20075;-47
2021/03/06 02:01:39;;;;;;;9.27;3.47;;;0.60;99.90;;;;;;5050626;28;20068;-45
2021/03/06 02:04:04;;;;;;;8.90;3.25;;;0.60;99.90;;;;;;5050857;28;20112;-46
2021/03/06 02:06:30;;;;;;;12.00;3.45;;;0.60;99.90;;;;;;5054324;28;20029;-46
2021/03/06 02:08:55;;;;;;;8.77;4.50;;;0.60;99.90;;;;;;5065303;28;20506;-46
2021/03/06 02:11:48;;;;;;;11.88;3.60;;;0.60;99.90;;;;;;5070545;28;20082;-45
2021/03/06 02:14:24;;;;;;;14.05;3.45;;;0.60;99.90;;;;;;5070200;28;20123;-45
2021/03/06 02:17:21;;;;;;;12.30;3.50;;;0.50;99.90;;;;;;5068719;28;20012;-46
2021/03/06 02:20:00;;;;;;;6.78;3.55;;;0.50;99.90;;;;;;5050288;28;20036;-45
2021/03/06 02:22:43;;;;;;;9.73;3.45;;;0.60;99.90;;;;;;5059486;28;20017;-46
2021/03/06 02:25:44;;;;;;;11.65;3.72;;;0.50;99.90;;;;;;5049574;28;20490;-46
2021/03/06 02:28:44;;;;;;;11.38;3.58;;;0.60;99.90;;;;;;5049865;28;20361;-45
2021/03/06 02:31:13;;;;;;;7.22;4.15;;;0.50;99.90;;;;;;5048619;28;20076;-45
2021/03/06 02:33:43;;;;;;;13.10;3.95;;;0.50;99.90;;;;;;5050077;28;20025;-45
2021/03/06 02:36:11;;;;;;;12.73;4.53;;;0.50;99.90;;;;;;5049218;28;20502;-49
2021/03/06 02:38:39;;;;;;;13.60;3.95;;;0.50;99.90;;;;;;5050371;28;20072;-45
2021/03/06 02:41:05;;;;;;;14.35;4.95;;;0.50;99.90;;;;;;5049629;28;20025;-45
2021/03/06 02:43:33;;;;;;;13.20;4.40;;;0.40;99.90;;;;;;5049962;28;20033;-46
2021/03/06 02:46:04;;;;;;;8.00;3.90;;;0.40;99.90;;;;;;5049450;28;20390;-46
2021/03/06 02:48:31;;;;;;;10.68;4.75;;;0.40;99.90;;;;;;5049781;28;20116;-46
2021/03/06 02:50:56;;;;;;;12.52;4.78;;;0.40;99.90;;;;;;5049593;28;20033;-45
2021/03/06 02:53:21;;;;;;;13.15;5.30;;;0.30;99.90;;;;;;5049308;28;20025;-45
2021/03/06 02:55:47;;;;;;;12.60;4.72;;;0.30;99.90;;;;;;5048885;28;20402;-45
2021/03/06 02:58:24;;;;;;;13.90;6.90;;;0.30;99.90;;;;;;5049263;28;20028;-45
2021/03/06 03:00:53;;;;;;;13.25;4.55;;;0.30;99.90;;;;;;5049570;28;20029;-48
2021/03/06 03:03:41;;;;;;;10.80;4.82;;;0.30;99.90;;;;;;5049334;28;20025;-45
2021/03/06 03:06:30;;;;;;;17.48;4.53;;;0.30;99.90;;;;;;5048941;28;20029;-45
2021/03/06 03:09:12;;;;;;;14.43;4.82;;;0.20;99.90;;;;;;5058169;28;20044;-46
2021/03/06 03:11:48;;;;;;;12.40;4.57;;;0.30;99.90;;;;;;5049539;28;20040;-45
2021/03/06 03:14:18;;;;;;;11.55;5.15;;;0.30;99.90;;;;;;5048967;28;20021;-45
2021/03/06 03:16:53;;;;;;;7.07;4.70;;;0.30;99.90;;;;;;5048693;28;20047;-46
2021/03/06 03:19:30;;;;;;;16.92;5.32;;;0.30;99.90;;;;;;5047861;28;20479;-45
2021/03/06 03:21:58;;;;;;;13.80;4.88;;;0.20;99.90;;;;;;5052205;28;20065;-46
2021/03/06 03:24:24;;;;;;;10.35;4.32;;;0.20;99.90;;;;;;5069244;28;20021;-46
2021/03/06 03:26:51;;;;;;;11.02;5.13;;;0.20;99.90;;;;;;5068792;28;20036;-46
2021/03/06 03:29:17;;;;;;;16.38;4.90;;;0.20;99.90;;;;;;5068370;28;20020;-46
2021/03/06 03:31:46;;;;;;;13.00;4.85;;;0.20;99.90;;;;;;5069260;28;20398;-44
2021/03/06 03:34:14;;;;;;;11.50;5.38;;;0.10;99.90;;;;;;5068763;28;20021;-45
2021/03/06 03:36:40;;;;;;;11.35;5.95;;;0.10;99.90;;;;;;5067865;28;20032;-45
2021/03/06 03:39:06;;;;;;;10.50;4.78;;;0.10;99.90;;;;;;5068362;28;20029;-45
2021/03/06 03:41:33;;;;;;;13.20;4.50;;;0.00;99.90;;;;;;5069008;28;20032;-46
2021/03/06 03:44:03;;;;;;;9.43;4.90;;;0.10;99.90;;;;;;5068628;28;20067;-45
2021/03/06 03:46:30;;;;;;;12.40;4.75;;;0.00;99.90;;;;;;5068411;28;20028;-45
2021/03/06 03:48:57;;;;;;;9.27;4.53;;;0.00;99.90;;;;;;5068315;28;20032;-44
2021/03/06 03:51:23;;;;;;;14.93;5.78;;;0.00;99.90;;;;;;5068334;28;20039;-44
2021/03/06 03:53:49;;;;;;;12.75;4.68;;;0.00;99.90;;;;;;5068049;28;20032;-45
2021/03/06 03:56:16;;;;;;;15.05;5.43;;;0.00;99.90;;;;;;5067337;28;20033;-45
2021/03/06 03:58:45;;;;;;;11.50;4.47;;;0.00;99.90;;;;;;5068494;28;20051;-45
2021/03/06 04:01:12;;;;;;;11.48;5.60;;;-0.10;99.90;;;;;;5062010;28;20107;-45
2021/03/06 04:03:38;;;;;;;12.55;5.10;;;-0.10;99.90;;;;;;5048559;28;20029;-44
2021/03/06 04:06:04;;;;;;;13.85;5.28;;;-0.10;99.90;;;;;;5047625;28;20372;-45
2021/03/06 04:08:29;;;;;;;15.80;5.38;;;-0.10;99.90;;;;;;5046377;28;20028;-45
2021/03/06 04:10:55;;;;;;;9.73;4.47;;;-0.10;99.90;;;;;;5062581;28;20244;-45
2021/03/06 04:13:20;;;;;;;9.55;4.80;;;-0.20;99.90;;;;;;5068232;28;20078;-45
2021/03/06 04:15:46;;;;;;;11.85;5.05;;;-0.10;99.90;;;;;;5067350;28;20034;-45
2021/03/06 04:18:11;;;;;;;9.88;4.93;;;-0.10;99.90;;;;;;5067834;28;20033;-44
2021/03/06 04:20:37;;;;;;;7.15;3.92;;;-0.20;99.90;;;;;;5066864;28;20029;-44
2021/03/06 04:23:03;;;;;;;11.15;4.75;;;-0.20;99.90;;;;;;5067145;28;20102;-44
2021/03/06 04:25:28;;;;;;;9.52;4.55;;;-0.30;99.90;;;;;;5067518;28;20474;-44
2021/03/06 04:27:54;;;;;;;14.27;4.75;;;-0.30;99.90;;;;;;5068038;28;20029;-47
2021/03/06 04:30:20;;;;;;;14.82;5.03;;;-0.30;99.90;;;;;;5067765;28;20040;-46
2021/03/06 04:32:46;;;;;;;11.10;4.55;;;-0.30;99.90;;;;;;5066520;28;20032;-45
2021/03/06 04:35:12;;;;;;;15.35;5.35;;;-0.40;99.90;;;;;;5067243;28;20093;-44
2021/03/06 04:37:38;;;;;;;10.35;5.47;;;-0.40;99.90;;;;;;5067730;28;20012;-45
2021/03/06 04:40:06;;;;;;;8.65;5.18;;;-0.40;99.90;;;;;;5067431;28;20025;-45
2021/03/06 04:42:32;;;;;;;7.13;4.85;;;-0.30;99.90;;;;;;5068003;28;20025;-45
2021/03/06 04:44:57;;;;;;;19.55;5.72;;;-0.30;99.90;;;;;;5067527;28;20028;-45
2021/03/06 04:47:23;;;;;;;15.15;4.88;;;-0.30;99.90;;;;;;5067123;28;20032;-45
2021/03/06 04:49:48;;;;;;;9.20;4.72;;;-0.30;99.90;;;;;;5066723;28;20029;-46
2021/03/06 04:52:14;;;;;;;17.10;4.97;;;-0.30;99.90;;;;;;5067356;28;20040;-46
2021/03/06 04:54:40;;;;;;;10.88;5.30;;;-0.30;99.90;;;;;;5068361;28;20401;-45
2021/03/06 04:57:06;;;;;;;11.50;4.70;;;-0.30;99.90;;;;;;5066961;28;20039;-46
2021/03/06 04:59:31;;;;;;;9.38;5.07;;;-0.30;99.90;;;;;;5067629;28;20020;-46
2021/03/06 05:01:57;;;;;;;17.40;4.68;;;-0.30;99.90;;;;;;5067381;28;20036;-46
2021/03/06 05:04:22;;;;;;;17.58;5.72;;;-0.30;99.90;;;;;;5066294;28;20020;-45
2021/03/06 05:06:48;;;;;;;12.07;5.40;;;-0.20;99.90;;;;;;5066560;28;20107;-45
2021/03/06 05:09:13;;;;;;;10.13;5.75;;;-0.20;99.90;;;;;;5065804;28;20024;-45
2021/03/06 05:11:39;;;;;;;13.75;5.38;;;-0.30;99.90;;;;;;5061591;28;20029;-45
2021/03/06 05:14:04;;;;;;;10.82;6.03;;;-0.20;99.90;;;;;;5067346;28;20127;-45
2021/03/06 05:16:30;;;;;;;14.55;4.53;;;-0.20;99.90;;;;;;5066947;28;20441;-44
2021/03/06 05:18:56;;;;;;;13.30;5.25;;;-0.20;99.90;;;;;;5067162;28;20039;-44
2021/03/06 05:21:21;;;;;;;14.32;5.03;;;-0.20;99.90;;;;;;5067523;28;20039;-45
2021/03/06 05:23:47;;;;;;;14.85;5.45;;;-0.30;99.90;;;;;;5067290;28;20071;-45
2021/03/06 05:26:12;;;;;;;8.13;4.85;;;-0.30;99.90;;;;;;5065651;28;20104;-45
2021/03/06 05:28:38;;;;;;;10.13;5.20;;;-0.30;99.90;;;;;;5066775;28;20454;-46
2021/03/06 05:31:04;;;;;;;14.90;4.68;;;-0.30;99.90;;;;;;5056332;28;20036;-45
2021/03/06 05:33:30;;;;;;;12.60;5.93;;;-0.40;99.90;;;;;;5056864;28;20029;-45
2021/03/06 05:35:55;;;;;;;8.85;5.07;;;-0.40;99.90;;;;;;5054522;28;20059;-45
2021/03/06 05:38:22;;;;;;;13.50;5.57;;;-0.40;99.90;;;;;;5056279;28;20496;-45
2021/03/06 05:40:49;;;;;;;8.68;5.05;;;-0.40;99.90;;;;;;5055774;28;20267;-45
2021/03/06 05:43:15;;;;;;;12.15;5.70;;;-0.40;99.90;;;;;;5055805;28;20256;-45
2021/03/06 05:45:48;;;;;;;12.85;4.70;;;-0.40;99.90;;;;;;5055165;28;20094;-45
2021/03/06 05:48:16;;;;;;;8.07;4.95;;;-0.40;99.90;;;;;;5054971;28;20064;-45
2021/03/06 05:50:43;;;;;;;13.85;5.60;;;-0.50;99.90;;;;;;5056415;28;20029;-46
2021/03/06 05:53:11;;;;;;;20.10;5.20;;;-0.40;99.90;;;;;;5056512;28;20110;-45
2021/03/06 05:55:41;;;;;;;18.52;6.40;;;-0.40;99.90;;;;;;5060866;28;20162;-44
2021/03/06 05:58:08;;;;;;;9.25;5.78;;;-0.30;99.90;;;;;;5058686;28;20025;-44
2021/03/06 06:00:34;;;;;;;12.05;5.18;;;-0.20;99.90;;;;;;5060671;28;20036;-45
2021/03/06 06:03:01;;;;;;;12.02;5.13;;;-0.20;99.90;;;;;;5060720;28;20025;-44
2021/03/06 06:05:27;;;;;;;13.10;5.85;;;-0.20;99.90;;;;;;5058456;28;20025;-44
2021/03/06 06:07:55;;;;;;;9.98;4.80;;;-0.10;99.90;;;;;;5058983;28;20028;-44
2021/03/06 06:10:22;;;;;;;11.82;5.30;;;0.00;99.90;;;;;;5059974;28;20026;-44
2021/03/06 06:12:48;;;;;;;13.73;4.90;;;0.10;99.90;;;;;;5060832;28;20036;-44
2021/03/06 06:15:14;;;;;;;8.52;4.50;;;0.20;99.90;;;;;;5056004;28;20040;-45
2021/03/06 06:17:41;;;;;;;15.00;5.00;;;0.20;99.90;;;;;;5059740;28;20486;-45
2021/03/06 06:20:07;;;;;;;9.27;5.00;;;0.30;99.90;;;;;;5058837;28;20036;-45
2021/03/06 06:22:33;;;;;;;8.57;4.90;;;0.30;99.90;;;;;;5055743;28;20028;-45
2021/03/06 06:24:59;;;;;;;15.85;5.70;;;0.20;99.90;;;;;;5050808;28;20029;-45
2021/03/06 06:27:32;;;;;;;11.15;5.32;;;0.20;99.90;;;;;;5050616;28;20099;-45
2021/03/06 06:29:59;;;;;;;17.05;5.18;;;0.30;99.90;;;;;;5049767;28;20033;-44
2021/03/06 06:32:44;;;;;;;10.02;4.43;;;0.40;99.90;;;;;;5054999;28;20028;-45
2021/03/06 06:35:13;;;;;;;15.82;5.10;;;0.50;99.90;;;;;;5069666;28;20013;-45
2021/03/06 06:37:38;;;;;;;15.48;4.60;;;0.50;99.90;;;;;;5085517;28;20032;-44
2021/03/06 06:40:21;;;;;;;14.45;4.57;;;0.60;99.90;;;;;;5077781;28;20535;-45
2021/03/06 06:42:47;;;;;;;8.20;3.65;;;0.70;99.90;;;;;;5078244;28;20025;-45
2021/03/06 06:45:13;;;;;;;12.43;6.15;;;0.80;99.90;;;;;;5059935;28;20024;-45
2021/03/06 06:47:41;;;;;;;8.15;4.90;;;0.90;99.90;;;;;;5062054;28;20031;-45
2021/03/06 06:50:09;;;;;;;12.57;4.78;;;0.90;99.90;;;;;;5060246;28;20021;-45
2021/03/06 06:52:36;;;;;;;11.73;4.85;;;1.00;99.90;;;;;;5059869;28;20482;-44
2021/03/06 06:55:03;;;;;;;13.45;4.43;;;1.00;99.90;;;;;;5057034;28;20083;-45
2021/03/06 06:57:28;;;;;;;7.72;4.00;;;1.00;99.90;;;;;;5059419;28;20559;-46
2021/03/06 07:00:04;;;;;;;10.70;4.22;;;1.20;99.90;;;;;;5058881;28;20029;-45
2021/03/06 07:02:31;;;;;;;12.52;4.45;;;1.20;99.90;;;;;;5055523;28;20609;-45
2021/03/06 07:04:58;;;;;;;12.68;4.70;;;1.20;99.90;;;;;;5058319;28;20039;-45
2021/03/06 07:07:35;;;;;;;16.55;5.25;;;1.20;99.90;;;;;;5059326;28;20025;-45
2021/03/06 07:10:18;;;;;;;6.65;3.65;;;1.30;99.90;;;;;;5060037;28;20059;-45
2021/03/06 07:12:54;;;;;;;11.32;3.78;;;1.30;99.90;;;;;;5060152;28;20039;-44
2021/03/06 07:15:22;;;;;;;8.90;3.95;;;1.40;99.90;;;;;;5060060;28;20060;-47
2021/03/06 07:17:53;;;;;;;10.23;3.85;;;1.50;99.90;;;;;;5058490;28;20271;-45
2021/03/06 07:20:21;;;;;;;17.80;4.47;;;1.40;99.90;;;;;;5057536;28;20269;-45
2021/03/06 07:22:51;;;;;;;8.25;4.07;;;1.40;99.90;;;;;;5054801;28;20049;-45
2021/03/06 07:25:17;;;;;;;8.20;3.73;;;1.40;99.90;;;;;;5057504;28;20017;-45
2021/03/06 07:27:43;;;;;;;12.50;4.55;;;1.50;99.90;;;;;;5059927;28;20021;-45
2021/03/06 07:30:11;;;;;;;11.00;3.65;;;1.50;99.90;;;;;;5058221;28;20086;-48
2021/03/06 07:32:38;;;;;;;13.93;4.80;;;1.60;99.90;;;;;;5058113;28;20371;-46
2021/03/06 07:35:10;;;;;;;6.88;4.05;;;1.70;99.90;;;;;;5058925;28;20389;-45
2021/03/06 07:37:37;;;;;;;9.95;5.45;;;1.70;99.90;;;;;;5059170;28;20098;-46
2021/03/06 07:40:08;;;;;;;13.43;5.18;;;1.90;99.90;;;;;;5057332;28;20494;-45
2021/03/06 07:42:43;;;;;;;6.80;4.03;;;2.00;99.90;;;;;;5062942;28;20428;-45
2021/03/06 07:45:11;;;;;;;10.10;3.75;;;1.90;99.90;;;;;;5068136;28;20024;-45
2021/03/06 07:47:39;;;;;;;7.85;3.72;;;2.10;99.90;;;;;;5069102;28;20021;-47
2021/03/06 07:50:08;;;;;;;9.90;4.72;;;2.20;99.90;;;;;;5062205;28;20112;-48
2021/03/06 07:52:37;;;;;;;9.57;4.03;;;2.20;99.90;;;;;;5055460;28;20021;-45
2021/03/06 07:55:09;;;;;;;14.60;3.53;;;2.30;99.90;;;;;;5058847;28;20493;-47
2021/03/06 07:58:02;;;;;;;8.15;3.28;;;2.40;99.90;;;;;;5059514;28;20255;-46
2021/03/06 08:00:43;;;;;;;18.27;4.10;;;2.50;99.90;;;;;;5058377;28;20470;-46
2021/03/06 08:03:27;;;;;;;18.77;4.60;;;2.60;99.90;;;;;;5054484;28;20110;-46
2021/03/06 08:05:57;;;;;;;7.95;3.40;;;2.80;99.90;;;;;;5065034;28;20028;-46
2021/03/06 08:08:49;;;;;;;11.43;3.83;;;2.90;99.90;;;;;;5056076;28;20044;-46
2021/03/06 08:11:19;;;;;;;7.68;3.70;;;3.00;99.90;;;;;;5058846;28;20024;-49
2021/03/06 08:13:47;;;;;;;9.73;3.50;;;3.00;99.90;;;;;;5058571;28;20020;-46
2021/03/06 08:16:24;;;;;;;12.35;3.60;;;3.00;99.90;;;;;;5049545;28;20033;-47
2021/03/06 08:19:13;;;;;;;10.60;3.33;;;2.90;99.90;;;;;;5058264;28;20017;-45
2021/03/06 08:21:41;;;;;;;6.47;2.80;;;3.10;99.90;;;;;;5040735;28;20498;-45
2021/03/06 08:24:18;;;;;;;10.30;3.15;;;3.20;99.90;;;;;;5056071;28;20024;-45
2021/03/06 08:26:52;;;;;;;8.52;3.92;;;3.10;99.90;;;;;;5068054;28;20028;-44
2021/03/06 08:29:21;;;;;;;9.25;3.20;;;2.80;99.90;;;;;;5051594;28;20044;-45
2021/03/06 08:31:58;;;;;;;11.35;3.75;;;2.90;99.90;;;;;;5056876;28;20063;-45
2021/03/06 08:34:38;;;;;;;7.20;3.67;;;2.70;99.90;;;;;;5056316;28;20037;-44
2021/03/06 08:37:12;;;;;;;10.17;4.40;;;2.50;99.90;;;;;;5057918;28;20073;-45
2021/03/06 08:39:39;;;;;;;7.82;3.70;;;2.40;99.90;;;;;;5058009;28;20033;-45
2021/03/06 08:42:05;;;;;;;10.68;3.63;;;2.40;99.90;;;;;;5055940;28;20012;-44
2021/03/06 08:44:30;;;;;;;12.63;4.32;;;2.40;99.90;;;;;;5058066;28;20025;-45
2021/03/06 08:46:57;;;;;;;7.32;4.03;;;2.50;99.90;;;;;;5056914;28;20383;-44
2021/03/06 08:49:23;;;;;;;10.20;4.35;;;2.60;99.90;;;;;;5053806;28;20035;-45
2021/03/06 08:51:51;;;;;;;9.02;4.00;;;2.60;99.90;;;;;;5056290;28;20033;-44
2021/03/06 08:54:16;;;;;;;10.38;3.88;;;2.60;99.90;;;;;;5056544;28;20500;-44
2021/03/06 08:56:42;;;;;;;10.25;3.95;;;2.60;99.90;;;;;;5055305;28;20190;-45
2021/03/06 08:59:07;;;;;;;8.98;3.95;;;2.70;99.90;;;;;;5055899;28;20032;-46
2021/03/06 09:01:34;;;;;;;7.68;3.47;;;2.80;99.90;;;;;;5056068;28;20031;-44
2021/03/06 09:04:00;;;;;;;13.82;4.55;;;2.80;99.90;;;;;;5054847;28;20351;-44
2021/03/06 09:06:38;;;;;;;15.15;4.72;;;2.90;99.90;;;;;;5054989;28;20116;-45
2021/03/06 09:09:08;;;;;;;10.55;4.22;;;2.80;99.90;;;;;;5055844;28;20044;-44
2021/03/06 09:11:33;;;;;;;15.30;3.92;;;2.90;99.90;;;;;;5064620;28;20028;-44
2021/03/06 09:13:59;;;;;;;9.57;3.45;;;3.00;99.90;;;;;;5066916;28;20425;-45
2021/03/06 09:16:24;;;;;;;9.88;3.45;;;3.30;99.90;;;;;;5058670;28;20612;-44
2021/03/06 09:18:50;;;;;;;12.60;4.13;;;3.40;99.90;;;;;;5065548;28;20497;-44
2021/03/06 09:21:23;;;;;;;6.50;2.95;;;3.60;99.90;;;;;;5065328;28;20033;-43
2021/03/06 09:23:49;;;;;;;9.60;3.50;;;3.70;99.90;;;;;;5066481;28;20485;-44
2021/03/06 09:26:17;;;;;;;11.35;3.78;;;3.60;99.90;;;;;;5066104;28;20056;-45
2021/03/06 09:28:44;;;;;;;8.63;3.17;;;3.70;99.90;;;;;;5071043;28;20134;-45
2021/03/06 09:31:24;;;;;;;12.07;3.35;;;3.70;99.90;;;;;;5070369;28;20235;-44
2021/03/06 09:33:50;;;;;;;6.75;3.22;;;4.30;99.90;;;;;;5070914;28;20032;-45
2021/03/06 09:36:19;;;;;;;6.90;2.67;;;4.50;99.90;;;;;;5069817;28;20032;-45
2021/03/06 09:38:46;;;;;;;12.50;3.38;;;4.60;99.90;;;;;;5067319;28;20218;-45
2021/03/06 09:41:13;;;;;;;7.40;2.83;;;4.50;99.90;;;;;;5052669;28;20545;-45
2021/03/06 09:43:40;;;;;;;11.18;2.85;;;4.30;99.90;;;;;;5050439;28;20020;-45
2021/03/06 09:46:36;;;;;;;7.60;2.97;;;4.40;99.90;;;;;;5049764;28;20017;-46
2021/03/06 09:49:10;;;;;;;11.88;3.25;;;4.70;99.90;;;;;;5038117;28;20487;-47
2021/03/06 09:51:43;;;;;;;7.60;3.35;;;5.10;99.90;;;;;;5050807;28;20051;-49
2021/03/06 09:54:09;;;;;;;6.93;2.97;;;5.40;99.90;;;;;;5050207;28;20502;-47
2021/03/06 09:57:06;;;;;;;5.93;2.80;;;6.60;99.90;;;;;;5062490;28;20501;-46
2021/03/06 09:59:38;;;;;;;9.43;2.90;;;7.60;99.90;;;;;;5056944;28;20030;-46
2021/03/06 10:02:10;;;;;;;8.98;3.38;;;8.30;99.90;;;;;;5058013;28;20366;-46
2021/03/06 10:04:37;;;;;;;8.70;3.17;;;7.90;99.90;;;;;;5057526;28;20009;-46
2021/03/06 10:07:09;;;;;;;8.32;2.83;;;7.60;99.90;;;;;;5055861;28;20021;-46
2021/03/06 10:09:35;;;;;;;10.88;4.07;;;7.10;99.90;;;;;;5065811;28;20399;-45
2021/03/06 10:12:07;;;;;;;10.05;2.53;;;6.40;99.90;;;;;;5066879;28;20028;-46
2021/03/06 10:14:33;;;;;;;5.70;2.63;;;6.00;99.90;;;;;;5069263;28;20244;-45
2021/03/06 10:17:01;;;;;;;5.97;2.88;;;6.10;99.90;;;;;;5055182;28;20029;-45
2021/03/06 10:19:32;;;;;;;9.35;3.55;;;6.00;99.90;;;;;;5063006;28;20098;-45
2021/03/06 10:22:00;;;;;;;;;;;6.00;99.90;;;;;;5069227;28;20025;-46
2021/03/06 10:24:25;;;;;;;6.60;3.13;;;6.00;99.90;;;;;;5063035;28;19905;-46
2021/03/06 10:26:59;;;;;;;11.48;3.30;;;5.90;99.90;;;;;;5048325;28;20029;-44
2021/03/06 10:29:25;;;;;;;10.40;3.47;;;5.80;99.90;;;;;;5048457;28;20672;-44
2021/03/06 10:32:03;;;;;;;5.88;3.03;;;5.70;99.90;;;;;;5059110;28;20024;-45
2021/03/06 10:34:33;;;;;;;6.90;3.28;;;5.80;99.90;;;;;;5061043;28;20016;-44
2021/03/06 10:37:05;;;;;;;9.35;2.60;;;6.00;99.90;;;;;;5066902;28;20032;-46
2021/03/06 10:39:31;;;;;;;13.00;3.72;;;6.90;99.90;;;;;;5053280;28;20381;-46
2021/03/06 10:41:59;;;;;;;10.25;3.28;;;7.10;99.90;;;;;;5058447;28;20028;-46
2021/03/06 10:44:37;;;;;;;11.95;3.40;;;7.20;99.90;;;;;;5055557;28;20074;-47
2021/03/06 10:47:03;;;;;;;7.35;2.50;;;7.70;99.90;;;;;;5049720;28;20524;-45
2021/03/06 10:49:35;;;;;;;8.00;2.90;;;8.40;99.90;;;;;;5048541;28;20025;-45
2021/03/06 10:52:01;;;;;;;7.78;2.80;;;9.30;97.00;;;;;;5048145;28;20028;-45
2021/03/06 10:54:26;;;;;;;7.55;2.88;;;9.40;97.50;;;;;;5047502;28;20096;-46
2021/03/06 10:57:07;;;;;;;7.63;2.83;;;9.40;95.60;;;;;;5047382;28;20111;-46
2021/03/06 10:59:34;;;;;;;6.90;2.80;;;9.30;96.60;;;;;;5048285;28;20017;-47
2021/03/06 11:01:59;;;;;;;5.88;2.72;;;9.30;95.20;;;;;;5047929;28;20428;-45
2021/03/06 11:04:29;;;;;;;12.45;3.53;;;9.00;97.40;;;;;;5047810;28;20120;-45
2021/03/06 11:07:06;;;;;;;6.85;2.70;;;9.10;95.70;;;;;;5046132;28;20140;-46
2021/03/06 11:09:39;;;;;;;8.85;3.00;;;8.80;98.00;;;;;;5065601;28;20074;-45
2021/03/06 11:12:25;;;;;;;8.63;3.00;;;8.40;97.20;;;;;;5067229;28;20024;-46
2021/03/06 11:15:11;;;;;;;7.68;2.75;;;8.00;98.80;;;;;;5047312;28;20036;-47
2021/03/06 11:17:38;;;;;;;6.32;3.17;;;7.70;99.90;;;;;;5048828;28;20115;-45
2021/03/06 11:20:05;;;;;;;7.35;2.60;;;7.60;99.90;;;;;;5060244;28;20035;-45
2021/03/06 11:22:30;;;;;;;8.43;2.80;;;7.20;99.90;;;;;;5065459;28;20025;-45
2021/03/06 11:24:57;;;;;;;5.70;2.95;;;7.00;99.90;;;;;;5052740;28;20062;-45
2021/03/06 11:27:23;;;;;;;7.20;3.03;;;7.10;99.90;;;;;;5056708;28;20042;-45
2021/03/06 11:29:48;;;;;;;7.28;2.70;;;6.90;99.90;;;;;;5056174;28;20033;-45
2021/03/06 11:32:14;;;;;;;6.57;2.95;;;6.60;99.90;;;;;;5057716;28;20024;-45
2021/03/06 11:34:39;;;;;;;8.90;3.50;;;6.60;99.90;;;;;;5054191;28;20013;-44
2021/03/06 11:37:05;;;;;;;8.23;3.20;;;6.50;99.90;;;;;;5046395;28;20402;-44
2021/03/06 11:39:31;;;;;;;6.68;3.08;;;6.50;99.90;;;;;;5056076;28;20115;-44
2021/03/06 11:41:57;;;;;;;6.00;3.28;;;6.50;99.90;;;;;;5055654;28;20128;-44
2021/03/06 11:44:23;;;;;;;8.40;3.30;;;6.50;99.90;;;;;;5046940;28;20119;-44
2021/03/06 11:46:49;;;;;;;8.80;3.47;;;6.30;99.90;;;;;;5046737;28;20021;-44
2021/03/06 11:49:14;;;;;;;8.73;3.22;;;6.30;99.90;;;;;;5046424;28;20063;-44
2021/03/06 11:51:40;;;;;;;10.80;3.40;;;6.30;99.90;;;;;;5046540;28;20071;-44
2021/03/06 11:54:05;;;;;;;9.38;3.17;;;6.20;99.90;;;;;;5047060;28;20047;-45
2021/03/06 11:56:31;;;;;;;10.60;3.75;;;6.20;99.90;;;;;;5044313;28;20820;-43
2021/03/06 11:58:56;;;;;;;9.57;3.38;;;6.30;99.90;;;;;;5045237;28;20033;-45
2021/03/06 12:01:22;;;;;;;8.27;3.75;;;6.40;99.90;;;;;;5046627;28;20032;-44
2021/03/06 12:03:48;;;;;;;11.60;4.18;;;6.40;99.90;;;;;;5046343;28;20428;-45
2021/03/06 12:06:14;;;;;;;10.32;4.00;;;6.20;99.90;;;;;;5046034;28;20033;-46
2021/03/06 12:08:39;;;;;;;8.50;3.30;;;6.20;99.90;;;;;;5046977;28;20021;-46
2021/03/06 12:11:05;;;;;;;17.98;4.38;;;6.20;99.90;;;;;;5046301;28;20036;-48
2021/03/06 12:13:31;;;;;;;13.10;4.47;;;6.20;99.90;;;;;;5047011;28;20390;-44
2021/03/06 12:15:58;;;;;;;11.20;4.03;;;6.10;99.90;;;;;;5045812;28;20033;-45
2021/03/06 12:18:23;;;;;;;10.77;5.38;;;6.10;99.90;;;;;;5044873;28;20108;-45
2021/03/06 12:20:49;;;;;;;7.22;3.55;;;6.20;99.90;;;;;;5047367;28;20111;-45
2021/03/06 12:23:15;;;;;;;11.80;3.58;;;6.20;99.90;;;;;;5054931;28;20021;-45
2021/03/06 12:25:40;;;;;;;11.02;3.47;;;6.30;99.90;;;;;;5052453;28;20028;-44
2021/03/06 12:28:06;;;;;;;8.45;4.07;;;6.30;99.90;;;;;;5052768;28;20024;-45
2021/03/06 12:30:31;;;;;;;8.20;4.05;;;6.20;99.90;;;;;;5058610;28;20036;-45
2021/03/06 12:32:57;;;;;;;9.15;4.05;;;6.10;99.90;;;;;;5055586;28;20519;-45
2021/03/06 12:35:22;;;;;;;6.53;3.28;;;6.10;99.90;;;;;;5056116;28;20048;-44
2021/03/06 12:37:48;;;;;;;9.40;3.28;;;6.00;99.90;;;;;;5057241;28;20037;-46
2021/03/06 12:40:15;;;;;;;11.23;3.63;;;6.10;99.90;;;;;;5054852;28;20029;-45
2021/03/06 12:42:41;;;;;;;7.47;3.80;;;6.00;99.90;;;;;;5052893;28;20528;-46
2021/03/06 12:45:08;;;;;;;6.63;3.95;;;6.00;99.90;;;;;;5056052;28;20028;-46
2021/03/06 12:47:33;;;;;;;5.18;2.72;;;6.00;99.90;;;;;;5055475;28;20100;-45
2021/03/06 12:49:59;;;;;;;8.77;3.22;;;6.10;99.90;;;;;;5056612;28;20099;-46
2021/03/06 12:52:24;;;;;;;8.07;3.42;;;6.10;99.90;;;;;;5052199;28;20048;-45
2021/03/06 12:54:50;;;;;;;10.20;3.80;;;6.00;99.90;;;;;;5054812;28;20540;-45
2021/03/06 12:57:15;;;;;;;6.10;3.40;;;6.00;99.90;;;;;;5052399;28;20029;-46
2021/03/06 12:59:41;;;;;;;10.10;4.00;;;6.00;99.90;;;;;;5055194;28;20075;-46